Time;durP1;ratioP1;P1;durP2;ratioP2;P2;SDS_P1;SDS_P2;PMS_P1;PMS_P2;Temp;Humidity;BMP_temperature;BMP_pressure;BME280_temperature;BME280_humidity;BME280_pressure;Samples;Min_cycle;Max_cycle;Signal;HPM_P1;HPM_P2
2023/05/04 00:02:02;;;;;;;;;7.67;7.00;;;;;16.46;47.89;101229.09;5066659;28;45485;-78
2023/05/04 00:04:27;;;;;;;;;6.67;4.33;;;;;16.56;48.13;101255.41;5060184;28;45515;-78
2023/05/04 00:06:53;;;;;;;;;9.33;7.67;;;;;16.44;48.14;101236.16;5076669;28;45307;-79
2023/05/04 00:09:19;;;;;;;;;9.33;7.00;;;;;16.46;48.40;101244.06;5081661;27;45387;-80
2023/05/04 00:11:45;;;;;;;;;9.33;7.33;;;;;16.45;48.85;101237.06;5077510;28;45583;-79
2023/05/04 00:14:11;;;;;;;;;7.00;7.00;;;;;16.38;48.47;101227.47;5079706;27;46684;-78
2023/05/04 00:16:36;;;;;;;;;8.00;7.00;;;;;16.41;48.68;101225.63;5082585;28;45449;-78
2023/05/04 00:19:03;;;;;;;;;7.00;7.00;;;;;16.45;48.85;101230.00;5083884;28;45381;-79
2023/05/04 00:21:29;;;;;;;;;9.67;8.67;;;;;16.51;48.64;101221.97;5084099;27;45378;-80
2023/05/04 00:23:54;;;;;;;;;8.00;8.00;;;;;16.49;48.44;101215.84;5078361;27;45303;-80
2023/05/04 00:26:20;;;;;;;;;9.33;9.33;;;;;16.49;48.42;101204.38;5076336;27;45524;-79
2023/05/04 00:28:46;;;;;;;;;7.67;7.67;;;;;15.99;48.67;101129.34;5057145;28;45510;-79
2023/05/04 00:31:11;;;;;;;;;10.00;9.67;;;;;16.51;48.95;101227.28;5079405;28;45438;-78
2023/05/04 00:33:37;;;;;;;;;9.33;7.33;;;;;16.18;49.01;101169.56;5082111;28;45470;-80
2023/05/04 00:36:03;;;;;;;;;12.67;10.67;;;;;16.24;49.01;101191.50;5082138;27;45473;-80
2023/05/04 00:38:29;;;;;;;;;10.00;9.33;;;;;16.46;49.03;101215.00;5082646;27;45499;-80
2023/05/04 00:40:56;;;;;;;;;13.33;9.33;;;;;16.43;49.10;101217.69;5081696;28;45354;-78
2023/05/04 00:43:22;;;;;;;;;14.33;11.33;;;;;16.32;48.89;101188.75;5065519;28;45493;-78
2023/05/04 00:45:48;;;;;;;;;14.00;9.67;;;;;16.24;49.23;101169.50;5076843;27;45437;-77
2023/05/04 00:48:14;;;;;;;;;8.67;8.00;;;;;16.27;49.41;101190.59;5075338;28;45520;-78
2023/05/04 00:50:41;;;;;;;;;12.00;11.33;;;;;16.35;49.33;101198.41;5077390;28;45821;-80
2023/05/04 00:53:09;;;;;;;;;10.67;9.33;;;;;16.47;49.30;101214.13;5076395;27;45437;-78
2023/05/04 00:55:39;;;;;;;;;11.67;10.00;;;;;16.45;49.22;101202.69;5076597;27;45449;-79
2023/05/04 00:58:07;;;;;;;;;12.67;10.67;;;;;16.35;49.61;101199.31;5077139;28;45798;-79
2023/05/04 01:00:35;;;;;;;;;10.33;10.00;;;;;16.31;49.56;101198.47;5076531;27;45460;-73
2023/05/04 01:03:00;;;;;;;;;11.00;10.00;;;;;15.63;49.37;101076.09;5076083;28;46182;-75
2023/05/04 01:05:34;;;;;;;;;10.33;10.33;;;;;16.25;50.19;101181.81;5076301;28;45481;-73
2023/05/04 01:08:12;;;;;;;;;12.00;10.00;;;;;16.12;49.75;101170.56;5077679;28;45414;-74
2023/05/04 01:10:46;;;;;;;;;15.33;9.67;;;;;16.24;50.08;101193.28;5080717;27;45457;-75
2023/05/04 01:13:13;;;;;;;;;9.00;9.00;;;;;16.12;50.08;101175.84;5080270;28;45423;-76
2023/05/04 01:15:40;;;;;;;;;14.33;10.67;;;;;16.15;50.43;101186.34;5079665;28;45442;-72
2023/05/04 01:18:06;;;;;;;;;11.33;10.67;;;;;16.07;50.56;101185.59;5075385;28;45432;-73
2023/05/04 01:20:32;;;;;;;;;11.00;10.67;;;;;16.09;50.81;101163.53;5062808;28;45534;-73
2023/05/04 01:22:58;;;;;;;;;13.00;9.67;;;;;15.95;50.94;101148.78;5074251;28;46606;-74
2023/05/04 01:25:31;;;;;;;;;12.67;11.00;;;;;16.02;50.83;101169.81;5074835;27;45723;-72
2023/05/04 01:28:17;;;;;;;;;11.33;8.33;;;;;16.10;50.63;101169.69;5076363;28;45728;-73
2023/05/04 01:30:46;;;;;;;;;12.00;9.00;;;;;15.92;50.79;101138.25;5079564;28;45253;-78
2023/05/04 01:33:11;;;;;;;;;13.00;11.33;;;;;16.17;50.65;101179.28;5076500;27;46494;-76
2023/05/04 01:35:37;;;;;;;;;10.67;10.00;;;;;15.94;50.95;101147.03;5076712;28;45390;-80
2023/05/04 01:38:04;;;;;;;;;9.67;8.33;;;;;16.10;51.08;101165.28;5077171;28;45779;-79
2023/05/04 01:40:29;;;;;;;;;10.33;8.67;;;;;16.01;51.34;101151.31;5077685;28;45908;-74
2023/05/04 01:42:55;;;;;;;;;13.00;11.67;;;;;15.90;50.91;101122.44;5065703;28;45560;-79
2023/05/04 01:45:21;;;;;;;;;10.67;7.33;;;;;16.25;51.39;101163.31;5073514;28;45561;-75
2023/05/04 01:47:48;;;;;;;;;11.00;11.00;;;;;16.06;51.03;101126.59;5076942;28;45315;-80
2023/05/04 01:50:14;;;;;;;;;13.33;11.33;;;;;16.24;51.15;101165.09;5076621;27;45416;-79
2023/05/04 01:52:39;;;;;;;;;11.33;10.33;;;;;16.16;50.94;101156.41;5075902;27;45301;-78
2023/05/04 01:55:05;;;;;;;;;11.67;11.00;;;;;16.14;51.02;101144.97;5079191;27;45352;-81
2023/05/04 01:57:31;;;;;;;;;12.00;9.67;;;;;16.08;51.32;101143.28;5058510;28;45394;-78
2023/05/04 01:59:57;;;;;;;;;11.67;8.33;;;;;16.02;50.98;101122.25;5067657;28;45437;-80
2023/05/04 02:02:23;;;;;;;;;12.33;11.00;;;;;16.22;51.38;101168.66;5076649;28;45841;-79
2023/05/04 02:04:50;;;;;;;;;10.33;7.33;;;;;16.06;51.47;101152.13;5079502;28;45506;-80
2023/05/04 02:07:16;;;;;;;;;15.00;13.00;;;;;15.83;51.34;101128.69;5077955;27;45687;-79
2023/05/04 02:09:41;;;;;;;;;13.00;9.67;;;;;15.98;51.99;101165.44;5075512;27;45597;-79
2023/05/04 02:12:11;;;;;;;;;12.33;11.67;;;;;15.77;51.52;101119.06;5079545;27;46617;-80
2023/05/04 02:14:36;;;;;;;;;16.00;13.00;;;;;15.87;51.98;101159.44;5060686;28;45923;-76
2023/05/04 02:17:02;;;;;;;;;11.33;9.67;;;;;15.82;52.04;101154.19;5076252;28;45511;-79
2023/05/04 02:19:28;;;;;;;;;13.67;13.67;;;;;15.71;52.43;101139.38;5058292;28;45450;-81
2023/05/04 02:21:54;;;;;;;;;14.33;13.33;;;;;15.74;52.14;101142.00;5056512;28;45999;-78
2023/05/04 02:24:20;;;;;;;;;12.33;12.33;;;;;15.64;52.64;101146.50;5060615;28;45502;-80
2023/05/04 02:26:49;;;;;;;;;15.00;12.67;;;;;15.63;52.72;101156.16;5073485;28;45441;-78
2023/05/04 02:29:14;;;;;;;;;13.00;11.33;;;;;15.65;53.02;101154.38;5067343;28;45393;-81
2023/05/04 02:31:44;;;;;;;;;16.00;12.33;;;;;15.58;53.16;101147.44;5079124;27;46094;-81
2023/05/04 02:34:09;;;;;;;;;14.33;12.00;;;;;15.58;53.39;101151.84;5080110;27;45452;-76
2023/05/04 02:36:35;;;;;;;;;13.00;11.67;;;;;15.16;52.89;101067.91;5073228;27;45504;-80
2023/05/04 02:39:01;;;;;;;;;10.00;9.00;;;;;15.41;53.10;101108.03;5067894;28;45782;-78
2023/05/04 02:41:26;;;;;;;;;11.67;10.33;;;;;15.65;52.99;101138.53;5080237;28;45458;-79
2023/05/04 02:43:52;;;;;;;;;10.33;10.33;;;;;15.63;52.93;101131.53;5076178;27;45497;-75
2023/05/04 02:46:22;;;;;;;;;16.67;15.00;;;;;15.47;52.61;101107.09;5080144;27;45663;-80
2023/05/04 02:48:49;;;;;;;;;15.33;14.00;;;;;15.58;53.43;101126.31;5078111;28;45382;-81
2023/05/04 02:51:14;;;;;;;;;18.67;14.33;;;;;15.48;53.03;101125.56;5075651;27;46526;-80
2023/05/04 02:53:40;;;;;;;;;13.00;10.67;;;;;15.50;53.53;101141.38;5071091;28;45661;-80
2023/05/04 02:56:05;;;;;;;;;18.33;13.67;;;;;15.46;53.58;101140.53;5068910;28;45470;-77
2023/05/04 02:58:35;;;;;;;;;9.00;8.67;;;;;15.27;53.33;101110.84;5078809;27;45378;-76
2023/05/04 03:01:01;;;;;;;;;12.33;11.00;;;;;15.33;53.89;101117.84;5047522;28;46440;-79
2023/05/04 03:03:27;;;;;;;;;14.67;12.00;;;;;15.38;53.39;101128.34;5076589;28;45502;-79
2023/05/04 03:05:52;;;;;;;;;20.33;13.33;;;;;15.37;53.64;101119.53;5043865;28;45579;-77
2023/05/04 03:08:21;;;;;;;;;18.67;13.33;;;;;15.33;53.98;101136.31;5075497;28;45443;-77
2023/05/04 03:10:50;;;;;;;;;14.00;11.00;;;;;15.30;54.04;101130.19;5074289;27;45721;-80
2023/05/04 03:13:16;;;;;;;;;17.00;14.00;;;;;15.24;54.47;101129.34;5074836;28;45412;-80
2023/05/04 03:15:41;;;;;;;;;18.67;18.00;;;;;15.26;54.53;101119.66;5076472;27;45306;-79
2023/05/04 03:18:07;;;;;;;;;15.33;13.00;;;;;15.00;54.51;101087.41;5080986;28;45509;-76
2023/05/04 03:20:34;;;;;;;;;13.67;12.00;;;;;15.09;54.69;101113.72;5079539;28;45562;-80
2023/05/04 03:22:59;;;;;;;;;17.67;15.33;;;;;15.04;54.45;101091.75;5071897;28;45758;-80
2023/05/04 03:25:25;;;;;;;;;15.67;15.00;;;;;14.95;54.45;101091.84;5075306;28;45410;-79
2023/05/04 03:27:51;;;;;;;;;18.33;16.00;;;;;14.94;54.46;101090.97;5074587;28;45509;-76
2023/05/04 03:30:17;;;;;;;;;14.75;14.75;;;;;14.93;54.17;101083.97;5069358;28;45590;-76
2023/05/04 03:32:44;;;;;;;;;17.00;14.67;;;;;14.90;54.56;101088.38;5076743;28;45628;-79
2023/05/04 03:35:09;;;;;;;;;18.33;14.33;;;;;14.85;55.02;101093.69;5062916;28;45434;-76
2023/05/04 03:37:35;;;;;;;;;14.00;11.67;;;;;14.97;54.59;101096.25;5082207;28;45771;-75
2023/05/04 03:40:01;;;;;;;;;14.33;13.33;;;;;14.85;54.83;101069.97;5077642;27;46292;-76
2023/05/04 03:42:30;;;;;;;;;23.33;16.00;;;;;15.06;54.85;101103.16;5079054;28;45498;-73
2023/05/04 03:44:56;;;;;;;;;15.33;13.67;;;;;15.01;54.55;101086.53;5078849;27;45780;-71
2023/05/04 03:47:21;;;;;;;;;17.67;15.33;;;;;15.04;54.68;101091.75;5077963;28;45819;-71
2023/05/04 03:49:48;;;;;;;;;16.33;15.00;;;;;14.98;54.97;101099.75;5079108;27;46193;-77
2023/05/04 03:52:13;;;;;;;;;13.50;13.50;;;;;14.76;55.05;101075.34;5078543;28;45368;-73
2023/05/04 03:54:39;;;;;;;;;16.25;14.75;;;;;14.89;55.48;101107.75;5078520;27;45339;-74
2023/05/04 03:57:05;;;;;;;;;16.75;14.25;;;;;14.73;55.53;101088.56;5078618;27;45471;-79
2023/05/04 03:59:30;;;;;;;;;15.25;15.25;;;;;14.23;55.14;100992.34;5075277;27;46390;-76
2023/05/04 04:01:56;;;;;;;;;16.25;15.75;;;;;14.73;54.91;101062.19;5068681;28;45456;-79
2023/05/04 04:04:21;;;;;;;;;15.50;13.75;;;;;14.84;55.28;101091.97;5079800;28;45507;-79
2023/05/04 04:06:47;;;;;;;;;21.00;16.75;;;;;14.90;55.17;101084.00;5078513;28;45438;-79
2023/05/04 04:09:13;;;;;;;;;21.75;18.50;;;;;14.89;55.25;101076.09;5079529;28;45543;-80
2023/05/04 04:11:38;;;;;;;;;20.00;15.25;;;;;14.88;55.34;101083.16;5081999;28;45485;-80
2023/05/04 04:14:05;;;;;;;;;15.33;14.00;;;;;14.84;55.24;101084.06;5080790;28;45404;-80
2023/05/04 04:16:31;;;;;;;;;15.75;15.25;;;;;14.58;55.70;101050.03;5077997;27;45475;-76
2023/05/04 04:18:57;;;;;;;;;15.75;14.75;;;;;14.84;55.95;101092.84;5082169;27;45492;-79
2023/05/04 04:21:22;;;;;;;;;19.75;18.00;;;;;14.67;55.44;101054.34;5082336;27;45351;-76
2023/05/04 04:23:51;;;;;;;;;16.25;15.75;;;;;14.60;55.85;101054.41;5077740;28;45807;-80
2023/05/04 04:26:19;;;;;;;;;13.75;13.00;;;;;14.51;55.92;101049.19;5077740;27;45889;-79
2023/05/04 04:28:49;;;;;;;;;17.00;16.50;;;;;14.40;55.76;101033.47;5077224;28;46684;-79
2023/05/04 04:31:16;;;;;;;;;20.25;15.00;;;;;14.61;55.82;101055.28;5078830;28;45407;-79
2023/05/04 04:33:42;;;;;;;;;18.75;16.25;;;;;14.92;55.68;101086.59;5073074;28;45458;-75
2023/05/04 04:36:08;;;;;;;;;21.25;18.50;;;;;14.59;55.38;101030.69;5058266;28;45378;-78
2023/05/04 04:38:34;;;;;;;;;14.50;14.50;;;;;14.91;55.68;101093.66;5079159;27;45363;-81
2023/05/04 04:40:59;;;;;;;;;16.25;14.75;;;;;14.87;55.51;101072.59;5081205;27;45536;-74
2023/05/04 04:43:25;;;;;;;;;16.75;15.00;;;;;14.84;55.15;101058.56;5078827;28;45757;-78
2023/05/04 04:45:52;;;;;;;;;18.00;14.00;;;;;14.70;55.41;101025.31;5078998;28;45538;-77
2023/05/04 04:48:20;;;;;;;;;13.33;12.33;;;;;14.93;55.30;101070.78;5077446;28;46312;-77
2023/05/04 04:50:46;;;;;;;;;22.25;16.50;;;;;14.91;54.94;101053.22;5076957;28;45339;-79
2023/05/04 04:53:11;;;;;;;;;16.50;15.50;;;;;14.86;54.99;101037.44;5076492;28;45543;-76
2023/05/04 04:55:37;;;;;;;;;18.75;15.00;;;;;14.97;55.22;101054.03;5079012;27;45818;-78
2023/05/04 04:58:02;;;;;;;;;17.75;16.25;;;;;14.96;55.21;101056.69;5081681;28;46591;-78
2023/05/04 05:00:28;;;;;;;;;18.25;14.25;;;;;14.79;55.13;101028.72;5061492;28;45467;-78
2023/05/04 05:02:54;;;;;;;;;18.75;16.25;;;;;14.72;55.49;101031.44;5077761;27;45510;-79
2023/05/04 05:05:21;;;;;;;;;16.00;13.75;;;;;14.84;56.02;101049.78;5055091;28;45909;-79
2023/05/04 05:07:46;;;;;;;;;17.75;15.50;;;;;14.71;55.29;101027.94;5075404;28;45723;-78
2023/05/04 05:10:12;;;;;;;;;19.00;17.50;;;;;14.89;55.56;101055.00;5069425;28;45477;-79
2023/05/04 05:12:38;;;;;;;;;16.50;14.50;;;;;14.88;55.84;101053.25;5076081;28;45401;-78
2023/05/04 05:15:04;;;;;;;;;18.00;17.75;;;;;14.82;55.77;101041.00;5089014;27;45573;-79
2023/05/04 05:17:30;;;;;;;;;18.25;16.75;;;;;14.89;55.48;101047.09;5075682;27;46780;-78
2023/05/04 05:19:55;;;;;;;;;14.50;11.75;;;;;14.74;55.70;101043.72;5080862;28;45480;-79
2023/05/04 05:22:21;;;;;;;;;16.25;15.50;;;;;14.65;55.70;101019.22;5070357;28;45462;-80
2023/05/04 05:24:47;;;;;;;;;18.25;14.25;;;;;14.75;56.04;101047.22;5050287;28;45865;-77
2023/05/04 05:27:13;;;;;;;;;14.75;14.00;;;;;14.75;55.28;101040.19;5076103;28;45831;-78
2023/05/04 05:29:39;;;;;;;;;20.75;15.50;;;;;14.68;56.04;101043.78;5057297;28;45543;-79
2023/05/04 05:32:05;;;;;;;;;17.25;15.50;;;;;14.69;56.26;101031.47;5055640;28;45578;-79
2023/05/04 05:34:30;;;;;;;;;19.50;16.50;;;;;14.73;56.08;101041.97;5069004;28;45496;-78
2023/05/04 05:36:56;;;;;;;;;14.50;14.50;;;;;14.84;55.53;101040.09;5062269;28;45516;-78
2023/05/04 05:39:22;;;;;;;;;22.50;18.50;;;;;14.83;55.64;101041.00;5048415;28;45478;-73
2023/05/04 05:41:48;;;;;;;;;19.75;17.25;;;;;14.74;55.62;101027.03;5059526;28;45401;-80
2023/05/04 05:44:13;;;;;;;;;16.50;15.50;;;;;14.92;55.56;101034.72;5066630;28;45663;-72
2023/05/04 05:46:39;;;;;;;;;19.50;16.00;;;;;15.12;55.58;101063.53;5062117;28;47423;-77
2023/05/04 05:49:08;;;;;;;;;25.00;19.00;;;;;15.21;54.55;101066.06;5061625;28;45336;-79
2023/05/04 05:51:37;;;;;;;;;19.00;18.00;;;;;15.21;54.77;101067.81;5072323;28;45431;-77
2023/05/04 05:54:02;;;;;;;;;22.75;18.50;;;;;15.24;55.14;101067.81;5047212;28;45576;-72
2023/05/04 05:56:28;;;;;;;;;22.75;15.75;;;;;15.31;54.16;101053.63;5037432;28;47837;-81
2023/05/04 05:58:53;;;;;;;;;19.50;18.25;;;;;15.39;53.87;101074.66;5055681;28;45712;-79
2023/05/04 06:01:19;;;;;;;;;23.00;19.75;;;;;15.33;54.62;101065.06;5062672;28;45442;-78
2023/05/04 06:03:45;;;;;;;;;22.50;16.75;;;;;15.40;54.38;101072.00;5047165;28;45442;-82
2023/05/04 06:06:11;;;;;;;;;20.25;18.00;;;;;15.52;54.28;101067.44;5060563;28;45326;-75
2023/05/04 06:08:37;;;;;;;;;20.50;19.50;;;;;15.47;54.28;101049.00;5045559;28;45425;-80
2023/05/04 06:11:02;;;;;;;;;19.50;17.50;;;;;15.59;53.67;101062.06;5055372;28;45467;-80
2023/05/04 06:13:28;;;;;;;;;23.75;20.00;;;;;15.63;53.76;101054.97;5061622;27;45496;-81
2023/05/04 06:15:54;;;;;;;;;15.00;15.00;;;;;15.74;53.44;101049.59;5045700;28;46999;-79
2023/05/04 06:18:20;;;;;;;;;20.25;17.25;;;;;15.80;53.15;101049.47;5038221;28;46046;-79
2023/05/04 06:20:46;;;;;;;;;19.75;18.25;;;;;15.82;52.94;101032.72;5058183;28;45533;-79
2023/05/04 06:23:14;;;;;;;;;16.67;14.33;;;;;15.72;53.13;101019.69;5069604;28;46035;-79
2023/05/04 06:25:40;;;;;;;;;15.67;12.00;;;;;15.59;53.24;101025.13;5067510;28;45732;-81
2023/05/04 06:28:06;;;;;;;;;25.25;18.25;;;;;15.74;53.43;101036.38;5054350;28;45528;-76
2023/05/04 06:30:31;;;;;;;;;17.67;14.67;;;;;15.68;53.30;101016.16;5042949;28;45416;-81
2023/05/04 06:32:57;;;;;;;;;15.00;15.00;;;;;15.83;52.93;101025.69;5061946;28;45296;-81
2023/05/04 06:35:22;;;;;;;;;18.67;15.00;;;;;15.87;52.88;101019.44;5054980;28;46586;-78
2023/05/04 06:37:48;;;;;;;;;14.33;14.33;;;;;16.01;52.40;101030.66;5073799;28;45463;-81
2023/05/04 06:40:15;;;;;;;;;16.25;16.25;;;;;16.02;52.79;101023.63;5061569;28;45457;-78
2023/05/04 06:42:40;;;;;;;;;16.67;13.67;;;;;16.08;52.56;101032.31;5065130;27;45424;-76
2023/05/04 06:45:06;;;;;;;;;19.00;13.00;;;;;15.99;52.71;101019.28;5071195;28;45549;-78
2023/05/04 06:47:36;;;;;;;;;17.00;16.00;;;;;16.06;52.50;101036.78;5053944;28;45489;-79
2023/05/04 06:50:09;;;;;;;;;15.00;15.00;;;;;16.12;52.67;101033.16;5073320;28;45390;-79
2023/05/04 06:52:38;;;;;;;;;19.33;18.00;;;;;16.02;52.92;101040.34;5059784;28;45559;-79
2023/05/04 06:55:06;;;;;;;;;17.67;16.33;;;;;16.14;52.53;101026.06;5048500;28;47917;-81
2023/05/04 06:57:31;;;;;;;;;20.25;17.25;;;;;16.47;51.96;101032.56;5055005;28;45527;-79
2023/05/04 06:59:57;;;;;;;;;20.00;15.33;;;;;16.61;51.65;101007.63;5054476;28;45417;-76
2023/05/04 07:02:23;;;;;;;;;16.33;14.00;;;;;16.79;50.91;101006.44;5056294;28;45358;-79
2023/05/04 07:04:52;;;;;;;;;16.00;14.33;;;;;16.69;51.46;101003.06;5064156;28;48115;-77
2023/05/04 07:07:18;;;;;;;;;19.00;14.33;;;;;16.69;51.45;101003.06;5060491;28;45357;-77
2023/05/04 07:09:46;;;;;;;;;22.67;18.67;;;;;16.57;51.51;101013.88;5060228;28;45252;-78
2023/05/04 07:12:13;;;;;;;;;21.00;17.33;;;;;16.62;51.72;101007.59;5049728;28;45861;-78
2023/05/04 07:14:38;;;;;;;;;20.33;17.67;;;;;16.55;51.58;101000.69;5068399;28;45057;-73
2023/05/04 07:17:08;;;;;;;;;21.33;16.67;;;;;16.66;51.58;101001.34;5066335;28;45304;-80
2023/05/04 07:19:33;;;;;;;;;17.33;14.00;;;;;16.93;51.39;100994.69;5064734;28;45391;-80
2023/05/04 07:21:59;;;;;;;;;22.67;19.00;;;;;17.03;51.00;101003.28;5078785;27;45280;-79
2023/05/04 07:24:28;;;;;;;;;20.33;15.00;;;;;17.18;50.91;101002.13;5067422;27;46368;-74
2023/05/04 07:26:54;;;;;;;;;16.00;15.33;;;;;17.33;50.61;100985.03;5040112;28;45659;-79
2023/05/04 07:29:19;;;;;;;;;19.67;14.67;;;;;17.62;50.02;101023.25;5039224;28;45486;-79
2023/05/04 07:31:45;;;;;;;;;22.67;18.33;;;;;17.47;49.69;101009.44;5056594;28;45472;-81
2023/05/04 07:34:11;;;;;;;;;20.67;17.33;;;;;17.49;49.80;101020.00;5060939;28;46217;-79
2023/05/04 07:36:37;;;;;;;;;14.00;12.33;;;;;17.57;49.88;101031.28;5059711;28;45371;-79
2023/05/04 07:39:03;;;;;;;;;15.33;14.67;;;;;17.59;50.11;101024.19;5064768;28;45553;-76
2023/05/04 07:41:29;;;;;;;;;18.67;14.67;;;;;17.55;50.08;101028.66;5057189;28;45849;-79
2023/05/04 07:43:55;;;;;;;;;17.00;15.67;;;;;17.53;49.94;101016.34;5064572;28;45895;-77
2023/05/04 07:46:21;;;;;;;;;15.00;12.67;;;;;17.54;50.31;101012.81;5059743;28;45824;-78
2023/05/04 07:48:48;;;;;;;;;17.67;15.33;;;;;17.64;50.30;101006.41;5052771;28;45643;-77
2023/05/04 07:51:14;;;;;;;;;22.67;15.33;;;;;17.85;50.14;101007.72;5045458;28;45389;-77
2023/05/04 07:53:40;;;;;;;;;18.00;15.00;;;;;17.92;49.93;101003.16;5053765;28;46504;-79
2023/05/04 07:56:10;;;;;;;;;16.33;15.00;;;;;17.94;49.41;100993.38;5039904;28;46487;-80
2023/05/04 07:58:36;;;;;;;;;18.33;12.67;;;;;18.05;49.50;101006.34;5035522;28;45470;-75
2023/05/04 08:01:02;;;;;;;;;16.33;16.00;;;;;18.07;49.91;101004.53;5057128;28;45280;-78
2023/05/04 08:03:30;;;;;;;;;20.33;17.00;;;;;18.27;49.70;101019.94;5061409;28;46609;-77
2023/05/04 08:05:56;;;;;;;;;19.67;16.33;;;;;18.23;49.72;101009.41;5056250;28;45409;-76
2023/05/04 08:08:22;;;;;;;;;15.33;13.33;;;;;18.32;49.60;101007.44;5070810;28;45494;-78
2023/05/04 08:10:48;;;;;;;;;18.00;15.00;;;;;18.32;50.02;101013.63;5061568;28;45875;-72
2023/05/04 08:13:13;;;;;;;;;19.33;16.33;;;;;18.49;49.12;101013.19;5056540;28;45484;-71
2023/05/04 08:15:39;;;;;;;;;19.00;17.33;;;;;18.51;48.96;100986.59;5065021;28;45612;-69
2023/05/04 08:18:05;;;;;;;;;21.67;16.00;;;;;18.73;48.58;101010.78;5061079;28;45439;-72
2023/05/04 08:20:31;;;;;;;;;20.33;16.33;;;;;18.69;48.55;101004.69;5058929;28;45522;-70
2023/05/04 08:22:57;;;;;;;;;16.33;16.33;;;;;18.80;48.22;101015.91;5054408;28;46859;-77
2023/05/04 08:25:23;;;;;;;;;14.33;14.33;;;;;18.83;48.41;101012.28;5066104;28;45478;-78
2023/05/04 08:27:48;;;;;;;;;17.00;16.33;;;;;18.97;48.35;101026.06;5060420;28;45337;-78
2023/05/04 08:30:15;;;;;;;;;16.67;14.33;;;;;18.97;48.13;101003.94;5069282;28;45312;-78
2023/05/04 08:32:55;;;;;;;;;21.33;18.67;;;;;18.96;47.93;101008.41;5077581;28;47231;-78
2023/05/04 08:35:26;;;;;;;;;21.33;17.00;;;;;18.93;48.13;101010.25;5059852;28;45855;-77
2023/05/04 08:37:52;;;;;;;;;17.33;14.00;;;;;18.94;48.38;100994.28;5076894;28;45292;-75
2023/05/04 08:40:18;;;;;;;;;15.67;15.33;;;;;18.88;48.47;100975.88;5085258;28;45411;-78
2023/05/04 08:42:46;;;;;;;;;16.67;15.67;;;;;19.06;48.30;100999.25;5065422;28;47675;-78
2023/05/04 08:45:13;;;;;;;;;17.33;17.00;;;;;19.07;48.54;100995.66;5065697;28;45584;-76
2023/05/04 08:47:42;;;;;;;;;19.00;16.67;;;;;19.05;48.31;100967.41;5082301;28;45462;-74
2023/05/04 08:50:09;;;;;;;;;22.00;17.33;;;;;19.31;48.16;100984.38;5082131;28;45633;-80
2023/05/04 08:52:37;;;;;;;;;18.33;15.67;;;;;19.26;48.08;100988.03;5078579;28;46136;-80
2023/05/04 08:55:04;;;;;;;;;15.33;14.67;;;;;19.45;47.98;100996.31;5077425;28;45477;-78
2023/05/04 08:57:32;;;;;;;;;15.33;14.67;;;;;19.64;48.32;100978.00;5077224;28;45501;-75
2023/05/04 09:00:00;;;;;;;;;15.33;15.33;;;;;19.83;47.47;100974.78;5080017;28;45355;-75
2023/05/04 09:02:27;;;;;;;;;15.67;14.67;;;;;19.84;47.13;100976.53;5079897;27;45395;-75
2023/05/04 09:04:54;;;;;;;;;17.00;16.00;;;;;19.57;47.20;100941.91;5080329;28;45325;-74
2023/05/04 09:07:20;;;;;;;;;15.33;14.67;;;;;19.55;47.94;100977.44;5079045;28;45312;-75
2023/05/04 09:09:49;;;;;;;;;23.33;17.67;;;;;19.51;48.18;100983.78;5080805;28;45291;-75
2023/05/04 09:12:15;;;;;;;;;15.33;15.00;;;;;19.55;47.94;100967.69;5080037;27;45784;-76
2023/05/04 09:14:41;;;;;;;;;18.00;16.00;;;;;19.72;47.96;100974.25;5080695;28;45351;-76
2023/05/04 09:17:16;;;;;;;;;17.67;16.33;;;;;19.87;47.84;100979.09;5063485;28;45893;-72
2023/05/04 09:19:43;;;;;;;;;19.33;16.00;;;;;20.01;47.59;100971.53;5074577;28;45496;-74
2023/05/04 09:22:16;;;;;;;;;18.00;16.67;;;;;20.13;47.48;100971.13;5087318;28;45357;-71
2023/05/04 09:24:41;;;;;;;;;21.67;16.00;;;;;20.33;47.21;100961.56;5081660;28;45446;-72
2023/05/04 09:27:12;;;;;;;;;15.67;13.67;;;;;20.56;46.98;100949.28;5077935;28;45442;-70
2023/05/04 09:29:39;;;;;;;;;18.00;17.67;;;;;20.78;46.36;100950.22;5062290;27;45444;-70
2023/05/04 09:32:11;;;;;;;;;17.67;14.33;;;;;20.89;46.10;100945.38;5078458;28;46021;-72
2023/05/04 09:34:51;;;;;;;;;15.00;15.00;;;;;21.07;45.76;100957.16;5077454;27;45484;-70
2023/05/04 09:37:20;;;;;;;;;17.00;14.67;;;;;21.09;44.95;100951.75;5077115;27;45573;-73
2023/05/04 09:39:57;;;;;;;;;17.00;15.67;;;;;21.01;45.50;100952.03;5079782;28;45455;-73
2023/05/04 09:42:24;;;;;;;;;16.00;16.00;;;;;21.02;45.24;100953.75;5074891;28;46319;-70
2023/05/04 09:45:05;;;;;;;;;15.67;13.67;;;;;20.95;45.41;100953.16;5060197;28;45400;-74
2023/05/04 09:47:41;;;;;;;;;15.33;15.00;;;;;20.95;45.29;100953.16;5061571;28;45510;-77
2023/05/04 09:50:38;;;;;;;;;15.00;15.00;;;;;21.03;45.29;100959.97;5061238;28;45546;-79
2023/05/04 09:53:08;;;;;;;;;17.00;13.67;;;;;21.24;44.82;100940.50;5053813;28;45692;-75
2023/05/04 09:55:34;;;;;;;;;15.00;14.33;;;;;21.30;44.69;100953.56;5045072;28;45643;-74
2023/05/04 09:58:00;;;;;;;;;15.00;14.00;;;;;21.41;44.69;100952.34;5064980;28;45434;-72
2023/05/04 10:00:26;;;;;;;;;13.00;12.67;;;;;21.54;44.25;100943.75;5056427;28;45473;-79
2023/05/04 10:02:52;;;;;;;;;13.00;12.00;;;;;21.78;43.64;100957.03;5056094;28;45489;-77
2023/05/04 10:05:20;;;;;;;;;16.33;14.33;;;;;21.96;43.19;100956.28;5054255;28;45394;-80
2023/05/04 10:07:46;;;;;;;;;18.00;16.33;;;;;22.01;42.85;100942.75;5062873;28;45450;-77
2023/05/04 10:10:13;;;;;;;;;17.00;14.00;;;;;22.17;42.65;100945.63;5043065;28;45378;-77
2023/05/04 10:12:39;;;;;;;;;15.33;15.33;;;;;22.08;42.12;100959.34;5061148;28;46494;-74
2023/05/04 10:18:25;;;;;;;;;12.33;11.00;;;;;22.06;42.38;100945.22;5066390;28;45596;-78
2023/05/04 10:21:17;;;;;;;;;14.33;13.00;;;;;21.99;42.36;100953.47;5058510;27;45540;-81
2023/05/04 10:23:49;;;;;;;;;12.33;11.33;;;;;21.96;42.86;100945.59;5060122;28;45456;-80
2023/05/04 10:26:36;;;;;;;;;11.67;11.00;;;;;22.14;42.68;100946.63;5056394;28;45361;-77
2023/05/04 10:29:22;;;;;;;;;11.33;10.00;;;;;22.38;42.21;100950.06;5065179;28;45930;-79
2023/05/04 10:31:48;;;;;;;;;12.33;12.33;;;;;22.57;42.24;100922.56;5060749;28;45480;-79
2023/05/04 10:34:28;;;;;;;;;14.33;11.67;;;;;22.75;41.58;100935.06;5058425;28;46877;-78
2023/05/04 10:36:54;;;;;;;;;12.67;12.33;;;;;22.63;41.00;100919.59;5058698;28;45372;-77
2023/05/04 10:39:23;;;;;;;;;14.67;13.67;;;;;22.72;40.96;100911.19;5057439;28;45501;-81
2023/05/04 10:42:15;;;;;;;;;12.00;12.00;;;;;22.62;41.10;100893.84;5063847;28;45432;-80
2023/05/04 10:44:55;;;;;;;;;15.50;12.50;;;;;23.01;40.76;100911.66;5045200;28;47038;-77
2023/05/04 10:47:33;;;;;;;;;13.67;13.00;;;;;23.11;39.76;100885.38;5069702;27;45455;-76
2023/05/04 10:50:09;;;;;;;;;12.00;12.00;;;;;23.42;39.54;100907.03;5066920;28;46340;-74
2023/05/04 10:52:52;;;;;;;;;15.00;12.33;;;;;23.57;39.41;100889.34;5070122;28;45545;-75
2023/05/04 10:55:23;;;;;;;;;13.33;12.33;;;;;23.69;39.14;100920.81;5068671;28;45670;-76
2023/05/04 10:57:57;;;;;;;;;12.33;12.33;;;;;23.32;38.72;100887.00;5066657;28;45564;-75
2023/05/04 11:00:37;;;;;;;;;12.67;11.33;;;;;23.17;38.95;100925.16;5068685;28;45517;-77
2023/05/04 11:03:07;;;;;;;;;13.33;11.00;;;;;23.16;39.12;100934.09;5068178;27;45579;-72
2023/05/04 11:05:59;;;;;;;;;12.33;12.00;;;;;23.00;38.61;100929.50;5069513;28;45553;-75
2023/05/04 11:08:25;;;;;;;;;11.33;11.33;;;;;23.02;39.27;100934.78;5049663;28;45532;-73
2023/05/04 11:11:05;;;;;;;;;10.67;10.00;;;;;23.03;38.63;100912.47;5065921;28;45419;-74
2023/05/04 11:13:43;;;;;;;;;9.00;9.00;;;;;23.08;38.58;100891.72;5059665;28;45601;-75
2023/05/04 11:16:11;;;;;;;;;11.67;11.67;;;;;23.39;37.89;100912.50;5060412;28;45824;-75
2023/05/04 11:18:37;;;;;;;;;9.33;7.00;;;;;23.77;38.05;100949.03;5068316;28;45565;-72